logo
Search for airport 
image banner adimage banner adimage banner ad
image banner ad

YRSS - Risdon Stud

Located in , Australia

ICAO - , IATA -

Data provided by Airmate  

General information

Coordinates: S28°18'23" E151°58'27"
Elevation is 1937 feet MSL.
 
View others Airports in Queensland

Operational data

Special qualification required
Current time UTC:
Current local time:
Weather at : - ( 0 km )
METAR: KTIX 171347Z 20004KT 7SM SKC 30/25 A3012
View NOTAMs / SUP AIP / TFR affecting this airport [VIEW]
Communications frequencies: [VIEW]

Runways:

Airport contact information

Address: Australia

Satellite view of YRSS